sensor_id;sensor_type;location;lat;lon;timestamp;temperature;humidity
20174;DHT22;10246;50.620;7.232;2022-12-29T00:00:03;12.60;1.00
20174;DHT22;10246;50.620;7.232;2022-12-29T00:02:30;12.60;1.00
20174;DHT22;10246;50.620;7.232;2022-12-29T00:04:59;12.60;1.00
20174;DHT22;10246;50.620;7.232;2022-12-29T00:07:25;12.70;1.00
20174;DHT22;10246;50.620;7.232;2022-12-29T00:09:52;12.70;1.00
20174;DHT22;10246;50.620;7.232;2022-12-29T00:12:19;12.70;1.00
20174;DHT22;10246;50.620;7.232;2022-12-29T00:14:45;12.70;1.00
20174;DHT22;10246;50.620;7.232;2022-12-29T00:17:30;12.70;1.00
20174;DHT22;10246;50.620;7.232;2022-12-29T00:19:56;12.70;1.00
20174;DHT22;10246;50.620;7.232;2022-12-29T00:22:42;12.70;1.00
20174;DHT22;10246;50.620;7.232;2022-12-29T00:25:26;12.70;1.00
20174;DHT22;10246;50.620;7.232;2022-12-29T00:28:11;12.60;1.00
20174;DHT22;10246;50.620;7.232;2022-12-29T00:30:59;12.70;1.00
20174;DHT22;10246;50.620;7.232;2022-12-29T00:33:43;12.60;1.00
20174;DHT22;10246;50.620;7.232;2022-12-29T00:36:28;12.60;1.00
20174;DHT22;10246;50.620;7.232;2022-12-29T00:39:00;12.60;1.00
20174;DHT22;10246;50.620;7.232;2022-12-29T00:41:45;12.60;1.00
20174;DHT22;10246;50.620;7.232;2022-12-29T00:44:29;12.60;1.00
20174;DHT22;10246;50.620;7.232;2022-12-29T00:46:56;12.60;1.00
20174;DHT22;10246;50.620;7.232;2022-12-29T00:49:22;12.60;1.00
20174;DHT22;10246;50.620;7.232;2022-12-29T00:51:59;12.60;1.00
20174;DHT22;10246;50.620;7.232;2022-12-29T00:54:30;12.50;1.30
20174;DHT22;10246;50.620;7.232;2022-12-29T00:56:57;12.50;1.40
20174;DHT22;10246;50.620;7.232;2022-12-29T00:59:24;12.50;1.60
20174;DHT22;10246;50.620;7.232;2022-12-29T01:01:52;12.50;1.30
20174;DHT22;10246;50.620;7.232;2022-12-29T01:04:19;12.60;1.40
20174;DHT22;10246;50.620;7.232;2022-12-29T01:06:46;12.50;1.50
20174;DHT22;10246;50.620;7.232;2022-12-29T01:09:13;12.50;1.30
20174;DHT22;10246;50.620;7.232;2022-12-29T01:11:59;12.60;1.20
20174;DHT22;10246;50.620;7.232;2022-12-29T01:14:26;12.60;1.20
20174;DHT22;10246;50.620;7.232;2022-12-29T01:16:54;12.60;1.00
20174;DHT22;10246;50.620;7.232;2022-12-29T01:19:21;12.60;1.00
20174;DHT22;10246;50.620;7.232;2022-12-29T01:21:48;12.70;1.00
20174;DHT22;10246;50.620;7.232;2022-12-29T01:24:15;12.70;1.00
20174;DHT22;10246;50.620;7.232;2022-12-29T01:26:42;12.70;1.00
20174;DHT22;10246;50.620;7.232;2022-12-29T01:29:10;12.70;1.00
20174;DHT22;10246;50.620;7.232;2022-12-29T01:31:37;12.80;1.00
20174;DHT22;10246;50.620;7.232;2022-12-29T01:34:04;12.90;1.00
20174;DHT22;10246;50.620;7.232;2022-12-29T01:36:32;13.00;1.00
20174;DHT22;10246;50.620;7.232;2022-12-29T01:38:59;13.00;1.00
20174;DHT22;10246;50.620;7.232;2022-12-29T01:41:26;13.10;1.00
20174;DHT22;10246;50.620;7.232;2022-12-29T01:43:55;13.10;1.00
20174;DHT22;10246;50.620;7.232;2022-12-29T01:46:26;13.20;1.00
20174;DHT22;10246;50.620;7.232;2022-12-29T01:48:59;13.20;1.00
20174;DHT22;10246;50.620;7.232;2022-12-29T01:51:31;13.20;1.00
20174;DHT22;10246;50.620;7.232;2022-12-29T01:54:00;13.20;1.00
20174;DHT22;10246;50.620;7.232;2022-12-29T01:56:28;13.30;1.00
20174;DHT22;10246;50.620;7.232;2022-12-29T01:59:01;13.20;1.00
20174;DHT22;10246;50.620;7.232;2022-12-29T02:01:30;13.30;1.00
20174;DHT22;10246;50.620;7.232;2022-12-29T02:03:57;13.30;1.00
20174;DHT22;10246;50.620;7.232;2022-12-29T02:06:28;13.30;1.00
20174;DHT22;10246;50.620;7.232;2022-12-29T02:08:56;13.30;1.00
20174;DHT22;10246;50.620;7.232;2022-12-29T02:11:25;13.30;1.00
20174;DHT22;10246;50.620;7.232;2022-12-29T02:13:52;13.40;1.00
20174;DHT22;10246;50.620;7.232;2022-12-29T02:16:36;13.40;1.00
20174;DHT22;10246;50.620;7.232;2022-12-29T02:22:27;13.40;1.00
20174;DHT22;10246;50.620;7.232;2022-12-29T02:25:35;13.40;1.00
20174;DHT22;10246;50.620;7.232;2022-12-29T02:28:42;13.40;1.00
20174;DHT22;10246;50.620;7.232;2022-12-29T02:31:17;13.40;1.00
20174;DHT22;10246;50.620;7.232;2022-12-29T02:33:52;13.30;1.00
20174;DHT22;10246;50.620;7.232;2022-12-29T02:36:27;13.30;1.00
20174;DHT22;10246;50.620;7.232;2022-12-29T02:39:01;13.30;1.00
20174;DHT22;10246;50.620;7.232;2022-12-29T02:41:32;13.30;1.00
20174;DHT22;10246;50.620;7.232;2022-12-29T02:44:07;13.20;1.00
20174;DHT22;10246;50.620;7.232;2022-12-29T02:46:46;13.20;1.00
20174;DHT22;10246;50.620;7.232;2022-12-29T02:49:18;13.20;1.00
20174;DHT22;10246;50.620;7.232;2022-12-29T02:51:50;13.20;1.00
20174;DHT22;10246;50.620;7.232;2022-12-29T02:54:18;13.20;1.00
20174;DHT22;10246;50.620;7.232;2022-12-29T02:57:03;13.10;1.00
20174;DHT22;10246;50.620;7.232;2022-12-29T02:59:31;13.00;1.00
20174;DHT22;10246;50.620;7.232;2022-12-29T03:02:28;13.00;1.00
20174;DHT22;10246;50.620;7.232;2022-12-29T03:05:14;13.00;1.00
20174;DHT22;10246;50.620;7.232;2022-12-29T03:07:52;13.00;1.00
20174;DHT22;10246;50.620;7.232;2022-12-29T03:10:32;12.90;1.00
20174;DHT22;10246;50.620;7.232;2022-12-29T03:13:06;13.00;1.00
20174;DHT22;10246;50.620;7.232;2022-12-29T03:15:58;13.00;1.00
20174;DHT22;10246;50.620;7.232;2022-12-29T03:18:37;13.00;1.00
20174;DHT22;10246;50.620;7.232;2022-12-29T03:21:10;13.00;1.00
20174;DHT22;10246;50.620;7.232;2022-12-29T03:23:40;13.00;1.00
20174;DHT22;10246;50.620;7.232;2022-12-29T03:26:11;13.10;1.00
20174;DHT22;10246;50.620;7.232;2022-12-29T03:28:40;13.10;1.00
20174;DHT22;10246;50.620;7.232;2022-12-29T03:31:09;13.10;1.00
20174;DHT22;10246;50.620;7.232;2022-12-29T03:33:38;13.00;1.00
20174;DHT22;10246;50.620;7.232;2022-12-29T03:36:10;13.00;1.00
20174;DHT22;10246;50.620;7.232;2022-12-29T03:38:41;13.10;1.00
20174;DHT22;10246;50.620;7.232;2022-12-29T03:41:12;13.10;1.00
20174;DHT22;10246;50.620;7.232;2022-12-29T03:43:41;13.10;1.00
20174;DHT22;10246;50.620;7.232;2022-12-29T03:46:07;13.10;1.00
20174;DHT22;10246;50.620;7.232;2022-12-29T03:48:34;13.10;1.00
20174;DHT22;10246;50.620;7.232;2022-12-29T03:51:02;13.10;1.00
20174;DHT22;10246;50.620;7.232;2022-12-29T03:53:29;13.00;1.00
20174;DHT22;10246;50.620;7.232;2022-12-29T03:55:56;13.10;1.00
20174;DHT22;10246;50.620;7.232;2022-12-29T03:58:22;13.10;1.00
20174;DHT22;10246;50.620;7.232;2022-12-29T04:00:49;13.10;1.00
20174;DHT22;10246;50.620;7.232;2022-12-29T04:03:16;13.20;1.00
20174;DHT22;10246;50.620;7.232;2022-12-29T04:05:43;13.20;1.00
20174;DHT22;10246;50.620;7.232;2022-12-29T04:08:11;13.20;1.00
20174;DHT22;10246;50.620;7.232;2022-12-29T04:10:37;13.30;1.00
20174;DHT22;10246;50.620;7.232;2022-12-29T04:13:04;13.30;1.00
20174;DHT22;10246;50.620;7.232;2022-12-29T04:15:31;13.30;1.00
20174;DHT22;10246;50.620;7.232;2022-12-29T04:17:58;13.30;1.00
20174;DHT22;10246;50.620;7.232;2022-12-29T04:20:24;13.30;1.00
20174;DHT22;10246;50.620;7.232;2022-12-29T04:23:08;13.30;1.00
20174;DHT22;10246;50.620;7.232;2022-12-29T04:25:36;13.30;1.00
20174;DHT22;10246;50.620;7.232;2022-12-29T04:28:03;13.30;1.00
20174;DHT22;10246;50.620;7.232;2022-12-29T04:30:30;13.30;1.00
20174;DHT22;10246;50.620;7.232;2022-12-29T04:32:57;13.30;1.00
20174;DHT22;10246;50.620;7.232;2022-12-29T04:35:24;13.30;1.00
20174;DHT22;10246;50.620;7.232;2022-12-29T04:37:51;13.20;1.00
20174;DHT22;10246;50.620;7.232;2022-12-29T04:40:18;13.20;1.00
20174;DHT22;10246;50.620;7.232;2022-12-29T04:42:46;13.20;1.00
20174;DHT22;10246;50.620;7.232;2022-12-29T04:45:12;13.20;1.00
20174;DHT22;10246;50.620;7.232;2022-12-29T04:47:39;13.30;1.00
20174;DHT22;10246;50.620;7.232;2022-12-29T04:50:07;13.20;1.00
20174;DHT22;10246;50.620;7.232;2022-12-29T04:52:34;13.20;1.00
20174;DHT22;10246;50.620;7.232;2022-12-29T04:55:01;13.20;1.00
20174;DHT22;10246;50.620;7.232;2022-12-29T04:57:28;13.20;1.00
20174;DHT22;10246;50.620;7.232;2022-12-29T04:59:56;13.30;1.00
20174;DHT22;10246;50.620;7.232;2022-12-29T05:02:23;13.20;1.00
20174;DHT22;10246;50.620;7.232;2022-12-29T05:04:50;13.20;1.00
20174;DHT22;10246;50.620;7.232;2022-12-29T05:07:18;13.20;1.00
20174;DHT22;10246;50.620;7.232;2022-12-29T05:09:45;13.10;1.00
20174;DHT22;10246;50.620;7.232;2022-12-29T05:12:12;13.10;1.00
20174;DHT22;10246;50.620;7.232;2022-12-29T05:14:38;13.10;1.00
20174;DHT22;10246;50.620;7.232;2022-12-29T05:17:06;13.10;1.00
20174;DHT22;10246;50.620;7.232;2022-12-29T05:19:33;13.10;1.00
20174;DHT22;10246;50.620;7.232;2022-12-29T05:22:00;13.10;1.00
20174;DHT22;10246;50.620;7.232;2022-12-29T05:24:27;13.00;1.00
20174;DHT22;10246;50.620;7.232;2022-12-29T05:26:54;13.00;1.00
20174;DHT22;10246;50.620;7.232;2022-12-29T05:29:21;13.00;1.00
20174;DHT22;10246;50.620;7.232;2022-12-29T05:31:48;13.00;1.00
20174;DHT22;10246;50.620;7.232;2022-12-29T05:34:16;12.90;1.00
20174;DHT22;10246;50.620;7.232;2022-12-29T05:36:43;12.90;1.00
20174;DHT22;10246;50.620;7.232;2022-12-29T05:39:09;12.90;1.40
20174;DHT22;10246;50.620;7.232;2022-12-29T05:41:36;12.80;1.80
20174;DHT22;10246;50.620;7.232;2022-12-29T05:44:03;12.80;1.70
20174;DHT22;10246;50.620;7.232;2022-12-29T05:46:30;12.80;1.50
20174;DHT22;10246;50.620;7.232;2022-12-29T05:48:57;12.80;1.00
20174;DHT22;10246;50.620;7.232;2022-12-29T05:51:25;12.80;1.00
20174;DHT22;10246;50.620;7.232;2022-12-29T05:53:52;12.80;1.00
20174;DHT22;10246;50.620;7.232;2022-12-29T05:56:19;12.80;1.00
20174;DHT22;10246;50.620;7.232;2022-12-29T05:58:45;12.80;1.00
20174;DHT22;10246;50.620;7.232;2022-12-29T06:01:12;12.90;1.00
20174;DHT22;10246;50.620;7.232;2022-12-29T06:03:39;12.90;1.00
20174;DHT22;10246;50.620;7.232;2022-12-29T06:06:06;12.80;1.00
20174;DHT22;10246;50.620;7.232;2022-12-29T06:08:34;12.80;1.00
20174;DHT22;10246;50.620;7.232;2022-12-29T06:11:01;12.90;1.40
20174;DHT22;10246;50.620;7.232;2022-12-29T06:13:28;12.80;2.20
20174;DHT22;10246;50.620;7.232;2022-12-29T06:15:54;12.70;2.60
20174;DHT22;10246;50.620;7.232;2022-12-29T06:18:21;12.70;3.70
20174;DHT22;10246;50.620;7.232;2022-12-29T06:20:48;12.60;5.10
20174;DHT22;10246;50.620;7.232;2022-12-29T06:23:15;12.50;5.90
20174;DHT22;10246;50.620;7.232;2022-12-29T06:25:46;12.50;6.60
20174;DHT22;10246;50.620;7.232;2022-12-29T06:28:13;12.50;7.50
20174;DHT22;10246;50.620;7.232;2022-12-29T06:30:43;12.40;8.10
20174;DHT22;10246;50.620;7.232;2022-12-29T06:33:10;12.40;8.80
20174;DHT22;10246;50.620;7.232;2022-12-29T06:35:37;12.30;9.70
20174;DHT22;10246;50.620;7.232;2022-12-29T06:38:03;12.20;10.60
20174;DHT22;10246;50.620;7.232;2022-12-29T06:40:31;12.20;11.30
20174;DHT22;10246;50.620;7.232;2022-12-29T06:42:59;12.20;11.80
20174;DHT22;10246;50.620;7.232;2022-12-29T06:45:25;12.10;12.10
20174;DHT22;10246;50.620;7.232;2022-12-29T06:47:52;12.10;12.60
20174;DHT22;10246;50.620;7.232;2022-12-29T06:50:19;12.10;13.10
20174;DHT22;10246;50.620;7.232;2022-12-29T06:52:46;12.00;13.70
20174;DHT22;10246;50.620;7.232;2022-12-29T06:55:13;12.00;12.70
20174;DHT22;10246;50.620;7.232;2022-12-29T06:57:40;12.00;12.20
20174;DHT22;10246;50.620;7.232;2022-12-29T07:00:09;12.00;11.70
20174;DHT22;10246;50.620;7.232;2022-12-29T07:02:36;12.00;11.60
20174;DHT22;10246;50.620;7.232;2022-12-29T07:05:03;12.00;11.30
20174;DHT22;10246;50.620;7.232;2022-12-29T07:07:30;12.10;11.10
20174;DHT22;10246;50.620;7.232;2022-12-29T07:09:57;12.10;10.80
20174;DHT22;10246;50.620;7.232;2022-12-29T07:12:24;12.20;10.80
20174;DHT22;10246;50.620;7.232;2022-12-29T07:14:50;12.20;10.80
20174;DHT22;10246;50.620;7.232;2022-12-29T07:17:19;12.10;10.40
20174;DHT22;10246;50.620;7.232;2022-12-29T07:19:45;12.10;10.50
20174;DHT22;10246;50.620;7.232;2022-12-29T07:22:12;12.10;9.40
20174;DHT22;10246;50.620;7.232;2022-12-29T07:24:39;12.10;9.20
20174;DHT22;10246;50.620;7.232;2022-12-29T07:27:05;12.10;8.70
20174;DHT22;10246;50.620;7.232;2022-12-29T07:29:32;12.10;8.30
20174;DHT22;10246;50.620;7.232;2022-12-29T07:31:59;12.10;7.50
20174;DHT22;10246;50.620;7.232;2022-12-29T07:34:27;12.20;5.90
20174;DHT22;10246;50.620;7.232;2022-12-29T07:36:54;12.20;4.00
20174;DHT22;10246;50.620;7.232;2022-12-29T07:39:21;12.20;4.30
20174;DHT22;10246;50.620;7.232;2022-12-29T07:41:48;12.10;4.00
20174;DHT22;10246;50.620;7.232;2022-12-29T07:44:15;12.10;3.50
20174;DHT22;10246;50.620;7.232;2022-12-29T07:46:41;12.20;1.70
20174;DHT22;10246;50.620;7.232;2022-12-29T07:49:08;12.20;1.00
20174;DHT22;10246;50.620;7.232;2022-12-29T07:51:36;12.20;1.10
20174;DHT22;10246;50.620;7.232;2022-12-29T07:54:03;12.10;1.60
20174;DHT22;10246;50.620;7.232;2022-12-29T07:56:30;12.10;2.30
20174;DHT22;10246;50.620;7.232;2022-12-29T07:58:56;12.20;1.00
20174;DHT22;10246;50.620;7.232;2022-12-29T08:01:23;12.20;1.00
20174;DHT22;10246;50.620;7.232;2022-12-29T08:03:50;12.20;1.00
20174;DHT22;10246;50.620;7.232;2022-12-29T08:06:17;12.20;1.00
20174;DHT22;10246;50.620;7.232;2022-12-29T08:08:45;12.20;1.00
20174;DHT22;10246;50.620;7.232;2022-12-29T08:11:12;12.20;1.00
20174;DHT22;10246;50.620;7.232;2022-12-29T08:13:39;12.10;1.00
20174;DHT22;10246;50.620;7.232;2022-12-29T08:16:06;12.10;1.00
20174;DHT22;10246;50.620;7.232;2022-12-29T08:18:32;12.20;1.00
20174;DHT22;10246;50.620;7.232;2022-12-29T08:21:02;12.20;1.00
20174;DHT22;10246;50.620;7.232;2022-12-29T08:23:29;12.20;1.00
20174;DHT22;10246;50.620;7.232;2022-12-29T08:26:04;12.20;1.00
20174;DHT22;10246;50.620;7.232;2022-12-29T08:28:31;12.20;1.00
20174;DHT22;10246;50.620;7.232;2022-12-29T08:30:59;12.20;1.00
20174;DHT22;10246;50.620;7.232;2022-12-29T08:33:26;12.20;1.00
20174;DHT22;10246;50.620;7.232;2022-12-29T08:35:58;12.20;1.00
20174;DHT22;10246;50.620;7.232;2022-12-29T08:38:27;12.20;1.00
20174;DHT22;10246;50.620;7.232;2022-12-29T08:40:53;12.20;1.00
20174;DHT22;10246;50.620;7.232;2022-12-29T08:43:22;12.20;1.00
20174;DHT22;10246;50.620;7.232;2022-12-29T08:45:49;12.20;1.00
20174;DHT22;10246;50.620;7.232;2022-12-29T08:48:15;12.20;1.00
20174;DHT22;10246;50.620;7.232;2022-12-29T08:50:45;12.20;1.00
20174;DHT22;10246;50.620;7.232;2022-12-29T08:53:12;12.20;1.00
20174;DHT22;10246;50.620;7.232;2022-12-29T08:55:39;12.20;1.00
20174;DHT22;10246;50.620;7.232;2022-12-29T08:58:06;12.20;1.00
20174;DHT22;10246;50.620;7.232;2022-12-29T09:00:34;12.20;1.00
20174;DHT22;10246;50.620;7.232;2022-12-29T09:03:01;12.20;1.00
20174;DHT22;10246;50.620;7.232;2022-12-29T09:05:28;12.20;1.00
20174;DHT22;10246;50.620;7.232;2022-12-29T09:07:54;12.20;1.00
20174;DHT22;10246;50.620;7.232;2022-12-29T09:10:21;12.20;1.00
20174;DHT22;10246;50.620;7.232;2022-12-29T09:12:48;12.30;1.00
20174;DHT22;10246;50.620;7.232;2022-12-29T09:15:15;12.20;1.00
20174;DHT22;10246;50.620;7.232;2022-12-29T09:17:44;12.30;1.00
20174;DHT22;10246;50.620;7.232;2022-12-29T09:20:11;12.30;1.00
20174;DHT22;10246;50.620;7.232;2022-12-29T09:22:39;12.30;1.00
20174;DHT22;10246;50.620;7.232;2022-12-29T09:25:07;12.30;1.00
20174;DHT22;10246;50.620;7.232;2022-12-29T09:27:34;12.20;1.00
20174;DHT22;10246;50.620;7.232;2022-12-29T09:30:01;12.30;1.00
20174;DHT22;10246;50.620;7.232;2022-12-29T09:32:29;12.40;1.00
20174;DHT22;10246;50.620;7.232;2022-12-29T09:34:57;12.30;1.00
20174;DHT22;10246;50.620;7.232;2022-12-29T09:37:23;12.30;1.00
20174;DHT22;10246;50.620;7.232;2022-12-29T09:39:50;12.30;1.00
20174;DHT22;10246;50.620;7.232;2022-12-29T09:42:22;12.30;1.00
20174;DHT22;10246;50.620;7.232;2022-12-29T09:44:59;12.30;1.00
20174;DHT22;10246;50.620;7.232;2022-12-29T09:47:28;12.30;1.00
20174;DHT22;10246;50.620;7.232;2022-12-29T09:50:02;12.40;1.00
20174;DHT22;10246;50.620;7.232;2022-12-29T09:52:31;12.40;1.00
20174;DHT22;10246;50.620;7.232;2022-12-29T09:55:01;12.40;1.00
20174;DHT22;10246;50.620;7.232;2022-12-29T09:57:33;12.40;1.00
20174;DHT22;10246;50.620;7.232;2022-12-29T10:00:05;12.40;1.00
20174;DHT22;10246;50.620;7.232;2022-12-29T10:02:38;12.40;1.00
20174;DHT22;10246;50.620;7.232;2022-12-29T10:05:20;12.50;1.00
20174;DHT22;10246;50.620;7.232;2022-12-29T10:07:54;12.50;1.00
20174;DHT22;10246;50.620;7.232;2022-12-29T10:10:31;12.40;1.00
20174;DHT22;10246;50.620;7.232;2022-12-29T10:13:06;12.50;1.00
20174;DHT22;10246;50.620;7.232;2022-12-29T10:15:44;12.50;1.00
20174;DHT22;10246;50.620;7.232;2022-12-29T10:18:24;12.50;1.00
20174;DHT22;10246;50.620;7.232;2022-12-29T10:20:59;12.50;1.00
20174;DHT22;10246;50.620;7.232;2022-12-29T10:23:32;12.50;1.00
20174;DHT22;10246;50.620;7.232;2022-12-29T10:26:03;12.50;1.00
20174;DHT22;10246;50.620;7.232;2022-12-29T10:28:35;12.60;1.00
20174;DHT22;10246;50.620;7.232;2022-12-29T10:31:06;12.60;1.00
20174;DHT22;10246;50.620;7.232;2022-12-29T10:33:37;12.60;1.00
20174;DHT22;10246;50.620;7.232;2022-12-29T10:36:14;12.60;1.00
20174;DHT22;10246;50.620;7.232;2022-12-29T10:38:48;12.70;1.00
20174;DHT22;10246;50.620;7.232;2022-12-29T10:41:20;12.70;1.00
20174;DHT22;10246;50.620;7.232;2022-12-29T10:43:49;12.70;1.00
20174;DHT22;10246;50.620;7.232;2022-12-29T10:46:19;12.80;1.00
20174;DHT22;10246;50.620;7.232;2022-12-29T10:48:47;12.80;1.00
20174;DHT22;10246;50.620;7.232;2022-12-29T10:51:21;12.80;1.00
20174;DHT22;10246;50.620;7.232;2022-12-29T10:53:51;12.90;1.00
20174;DHT22;10246;50.620;7.232;2022-12-29T10:56:25;12.90;1.00
20174;DHT22;10246;50.620;7.232;2022-12-29T10:58:54;12.90;1.00
20174;DHT22;10246;50.620;7.232;2022-12-29T11:01:25;13.00;1.00
20174;DHT22;10246;50.620;7.232;2022-12-29T11:04:02;13.10;1.00
20174;DHT22;10246;50.620;7.232;2022-12-29T11:06:31;13.10;1.00
20174;DHT22;10246;50.620;7.232;2022-12-29T11:09:03;13.10;1.00
20174;DHT22;10246;50.620;7.232;2022-12-29T11:11:35;13.10;1.00
20174;DHT22;10246;50.620;7.232;2022-12-29T11:14:11;13.10;1.00
20174;DHT22;10246;50.620;7.232;2022-12-29T11:16:38;13.10;1.00
20174;DHT22;10246;50.620;7.232;2022-12-29T11:19:19;13.10;1.00
20174;DHT22;10246;50.620;7.232;2022-12-29T11:21:47;13.10;1.00
20174;DHT22;10246;50.620;7.232;2022-12-29T11:24:25;13.10;1.00
20174;DHT22;10246;50.620;7.232;2022-12-29T11:26:54;13.10;1.00
20174;DHT22;10246;50.620;7.232;2022-12-29T11:29:25;13.10;1.00
20174;DHT22;10246;50.620;7.232;2022-12-29T11:31:53;13.10;1.00
20174;DHT22;10246;50.620;7.232;2022-12-29T11:34:22;13.20;1.00
20174;DHT22;10246;50.620;7.232;2022-12-29T11:36:53;13.10;1.00
20174;DHT22;10246;50.620;7.232;2022-12-29T11:39:29;13.10;1.00
20174;DHT22;10246;50.620;7.232;2022-12-29T11:41:56;13.10;1.00
20174;DHT22;10246;50.620;7.232;2022-12-29T11:44:24;13.10;1.00
20174;DHT22;10246;50.620;7.232;2022-12-29T11:46:52;13.10;1.00
20174;DHT22;10246;50.620;7.232;2022-12-29T11:49:20;13.10;1.00
20174;DHT22;10246;50.620;7.232;2022-12-29T11:51:50;13.10;1.00
20174;DHT22;10246;50.620;7.232;2022-12-29T11:54:23;13.10;1.00
20174;DHT22;10246;50.620;7.232;2022-12-29T11:56:52;13.10;1.00
20174;DHT22;10246;50.620;7.232;2022-12-29T12:02:31;13.10;1.00
20174;DHT22;10246;50.620;7.232;2022-12-29T12:05:05;13.10;1.00
20174;DHT22;10246;50.620;7.232;2022-12-29T12:07:41;13.10;1.00
20174;DHT22;10246;50.620;7.232;2022-12-29T12:10:18;13.10;1.00
20174;DHT22;10246;50.620;7.232;2022-12-29T12:12:50;13.10;1.00
20174;DHT22;10246;50.620;7.232;2022-12-29T12:15:20;13.00;1.00
20174;DHT22;10246;50.620;7.232;2022-12-29T12:17:51;13.10;1.00
20174;DHT22;10246;50.620;7.232;2022-12-29T12:20:21;13.10;1.00
20174;DHT22;10246;50.620;7.232;2022-12-29T12:22:58;13.10;1.00
20174;DHT22;10246;50.620;7.232;2022-12-29T12:25:30;13.10;1.00
20174;DHT22;10246;50.620;7.232;2022-12-29T12:28:05;13.10;1.00
20174;DHT22;10246;50.620;7.232;2022-12-29T12:30:38;13.10;1.00
20174;DHT22;10246;50.620;7.232;2022-12-29T12:33:16;13.10;1.00
20174;DHT22;10246;50.620;7.232;2022-12-29T12:35:51;13.10;1.00
20174;DHT22;10246;50.620;7.232;2022-12-29T12:38:26;13.10;1.00
20174;DHT22;10246;50.620;7.232;2022-12-29T12:41:03;13.10;1.00
20174;DHT22;10246;50.620;7.232;2022-12-29T12:43:40;13.10;1.00
20174;DHT22;10246;50.620;7.232;2022-12-29T12:46:19;13.10;1.00
20174;DHT22;10246;50.620;7.232;2022-12-29T12:52:05;13.10;1.00
20174;DHT22;10246;50.620;7.232;2022-12-29T12:54:48;13.10;1.00
20174;DHT22;10246;50.620;7.232;2022-12-29T12:57:22;13.20;1.00
20174;DHT22;10246;50.620;7.232;2022-12-29T12:59:56;13.20;1.00
20174;DHT22;10246;50.620;7.232;2022-12-29T13:02:34;13.20;1.00
20174;DHT22;10246;50.620;7.232;2022-12-29T13:05:15;13.20;1.00
20174;DHT22;10246;50.620;7.232;2022-12-29T13:07:53;13.30;1.00
20174;DHT22;10246;50.620;7.232;2022-12-29T13:10:29;13.30;1.00
20174;DHT22;10246;50.620;7.232;2022-12-29T13:13:13;13.20;1.00
20174;DHT22;10246;50.620;7.232;2022-12-29T13:15:48;13.10;1.00
20174;DHT22;10246;50.620;7.232;2022-12-29T13:18:23;13.10;1.00
20174;DHT22;10246;50.620;7.232;2022-12-29T13:20:55;13.10;1.00
20174;DHT22;10246;50.620;7.232;2022-12-29T13:23:29;13.00;1.00
20174;DHT22;10246;50.620;7.232;2022-12-29T13:26:05;13.00;1.00
20174;DHT22;10246;50.620;7.232;2022-12-29T13:28:43;13.00;1.00
20174;DHT22;10246;50.620;7.232;2022-12-29T13:31:16;13.00;1.00
20174;DHT22;10246;50.620;7.232;2022-12-29T13:33:50;13.00;1.00
20174;DHT22;10246;50.620;7.232;2022-12-29T13:36:25;13.00;1.00
20174;DHT22;10246;50.620;7.232;2022-12-29T13:39:01;13.00;1.00
20174;DHT22;10246;50.620;7.232;2022-12-29T13:41:32;13.00;1.00
20174;DHT22;10246;50.620;7.232;2022-12-29T13:44:03;13.00;1.00
20174;DHT22;10246;50.620;7.232;2022-12-29T13:46:34;13.00;1.00
20174;DHT22;10246;50.620;7.232;2022-12-29T13:49:06;13.00;1.00
20174;DHT22;10246;50.620;7.232;2022-12-29T13:51:34;13.00;1.00
20174;DHT22;10246;50.620;7.232;2022-12-29T13:54:11;13.10;1.00
20174;DHT22;10246;50.620;7.232;2022-12-29T13:56:42;13.10;1.00
20174;DHT22;10246;50.620;7.232;2022-12-29T13:59:20;13.10;1.00
20174;DHT22;10246;50.620;7.232;2022-12-29T14:01:53;13.10;1.00
20174;DHT22;10246;50.620;7.232;2022-12-29T14:04:24;13.10;1.00
20174;DHT22;10246;50.620;7.232;2022-12-29T14:07:02;13.00;1.00
20174;DHT22;10246;50.620;7.232;2022-12-29T14:09:40;13.10;1.00
20174;DHT22;10246;50.620;7.232;2022-12-29T14:12:27;13.00;1.00
20174;DHT22;10246;50.620;7.232;2022-12-29T14:15:05;13.10;1.00
20174;DHT22;10246;50.620;7.232;2022-12-29T14:17:33;13.10;1.00
20174;DHT22;10246;50.620;7.232;2022-12-29T14:19:59;13.10;1.00
20174;DHT22;10246;50.620;7.232;2022-12-29T14:22:27;13.10;1.00
20174;DHT22;10246;50.620;7.232;2022-12-29T14:24:54;13.10;1.00
20174;DHT22;10246;50.620;7.232;2022-12-29T14:30:59;13.00;1.00
20174;DHT22;10246;50.620;7.232;2022-12-29T14:33:28;13.00;1.00
20174;DHT22;10246;50.620;7.232;2022-12-29T14:35:56;13.00;1.00
20174;DHT22;10246;50.620;7.232;2022-12-29T14:38:26;12.90;1.00
20174;DHT22;10246;50.620;7.232;2022-12-29T14:41:15;12.90;1.00
20174;DHT22;10246;50.620;7.232;2022-12-29T14:43:53;12.80;1.00
20174;DHT22;10246;50.620;7.232;2022-12-29T14:46:22;12.80;1.00
20174;DHT22;10246;50.620;7.232;2022-12-29T14:48:55;12.80;1.00
20174;DHT22;10246;50.620;7.232;2022-12-29T14:51:34;12.80;1.00
20174;DHT22;10246;50.620;7.232;2022-12-29T14:57:04;12.70;1.00
20174;DHT22;10246;50.620;7.232;2022-12-29T14:59:32;12.60;1.00
20174;DHT22;10246;50.620;7.232;2022-12-29T15:02:03;12.60;1.00
20174;DHT22;10246;50.620;7.232;2022-12-29T15:04:32;12.50;1.00
20174;DHT22;10246;50.620;7.232;2022-12-29T15:07:00;12.50;1.00
20174;DHT22;10246;50.620;7.232;2022-12-29T15:09:33;12.40;1.00
20174;DHT22;10246;50.620;7.232;2022-12-29T15:12:05;12.50;1.00
20174;DHT22;10246;50.620;7.232;2022-12-29T15:14:47;12.40;1.00
20174;DHT22;10246;50.620;7.232;2022-12-29T15:17:25;12.40;1.00
20174;DHT22;10246;50.620;7.232;2022-12-29T15:19:52;12.40;1.00
20174;DHT22;10246;50.620;7.232;2022-12-29T15:22:19;12.30;1.00
20174;DHT22;10246;50.620;7.232;2022-12-29T15:24:46;12.30;1.00
20174;DHT22;10246;50.620;7.232;2022-12-29T15:27:14;12.30;1.00
20174;DHT22;10246;50.620;7.232;2022-12-29T15:29:43;12.30;1.00
20174;DHT22;10246;50.620;7.232;2022-12-29T15:32:20;12.20;1.00
20174;DHT22;10246;50.620;7.232;2022-12-29T15:34:50;12.20;1.00
20174;DHT22;10246;50.620;7.232;2022-12-29T15:37:22;12.10;1.00
20174;DHT22;10246;50.620;7.232;2022-12-29T15:39:50;12.00;1.00
20174;DHT22;10246;50.620;7.232;2022-12-29T15:42:35;12.10;1.00
20174;DHT22;10246;50.620;7.232;2022-12-29T15:45:08;12.00;1.00
20174;DHT22;10246;50.620;7.232;2022-12-29T15:47:36;12.00;1.00
20174;DHT22;10246;50.620;7.232;2022-12-29T15:50:06;11.90;1.00
20174;DHT22;10246;50.620;7.232;2022-12-29T15:52:35;11.80;1.00
20174;DHT22;10246;50.620;7.232;2022-12-29T15:55:06;11.80;1.00
20174;DHT22;10246;50.620;7.232;2022-12-29T15:57:43;11.70;1.00
20174;DHT22;10246;50.620;7.232;2022-12-29T16:00:22;11.70;1.00
20174;DHT22;10246;50.620;7.232;2022-12-29T16:02:50;11.70;1.00
20174;DHT22;10246;50.620;7.232;2022-12-29T16:05:18;11.70;1.00
20174;DHT22;10246;50.620;7.232;2022-12-29T16:07:52;11.70;1.00
20174;DHT22;10246;50.620;7.232;2022-12-29T16:10:31;11.70;1.00
20174;DHT22;10246;50.620;7.232;2022-12-29T16:13:05;11.70;1.00
20174;DHT22;10246;50.620;7.232;2022-12-29T16:15:33;11.70;1.00
20174;DHT22;10246;50.620;7.232;2022-12-29T16:18:00;11.50;1.00
20174;DHT22;10246;50.620;7.232;2022-12-29T16:20:37;11.60;1.00
20174;DHT22;10246;50.620;7.232;2022-12-29T16:23:05;11.50;1.00